sensor_id;sensor_type;location;lat;lon;timestamp;pressure;altitude;pressure_sealevel;temperature;humidity
55271;BME280;41132;47.162;9.470;2023-01-31T00:11:29;97467.72;;;1.31;100.00
55271;BME280;41132;47.162;9.470;2023-01-31T00:21:40;97468.56;;;1.49;100.00
55271;BME280;41132;47.162;9.470;2023-01-31T00:24:07;97469.38;;;1.50;100.00
55271;BME280;41132;47.162;9.470;2023-01-31T00:26:33;97472.84;;;1.50;100.00
55271;BME280;41132;47.162;9.470;2023-01-31T00:29:01;97451.72;;;1.40;100.00
55271;BME280;41132;47.162;9.470;2023-01-31T00:31:28;97473.72;;;1.49;100.00
55271;BME280;41132;47.162;9.470;2023-01-31T00:33:55;97468.47;;;1.33;100.00
55271;BME280;41132;47.162;9.470;2023-01-31T00:36:23;97475.00;;;1.40;100.00
55271;BME280;41132;47.162;9.470;2023-01-31T00:38:54;97481.88;;;1.59;100.00
55271;BME280;41132;47.162;9.470;2023-01-31T00:41:21;97477.31;;;1.46;100.00
55271;BME280;41132;47.162;9.470;2023-01-31T00:46:22;97471.66;;;1.38;100.00
55271;BME280;41132;47.162;9.470;2023-01-31T00:51:24;97462.31;;;1.36;100.00
55271;BME280;41132;47.162;9.470;2023-01-31T00:53:50;97464.44;;;1.28;100.00
55271;BME280;41132;47.162;9.470;2023-01-31T00:56:18;97452.13;;;1.33;100.00
55271;BME280;41132;47.162;9.470;2023-01-31T00:58:43;97465.94;;;1.32;100.00
55271;BME280;41132;47.162;9.470;2023-01-31T01:01:18;97464.22;;;1.32;100.00
55271;BME280;41132;47.162;9.470;2023-01-31T01:03:45;97474.63;;;1.31;100.00
55271;BME280;41132;47.162;9.470;2023-01-31T01:06:11;97481.03;;;1.23;100.00
55271;BME280;41132;47.162;9.470;2023-01-31T01:08:38;97465.56;;;1.22;100.00
55271;BME280;41132;47.162;9.470;2023-01-31T01:13:36;97459.56;;;1.21;100.00
55271;BME280;41132;47.162;9.470;2023-01-31T01:16:10;97468.91;;;1.24;100.00
55271;BME280;41132;47.162;9.470;2023-01-31T01:23:46;97472.28;;;1.26;100.00
55271;BME280;41132;47.162;9.470;2023-01-31T01:31:23;97470.47;;;1.45;100.00
55271;BME280;41132;47.162;9.470;2023-01-31T01:33:59;97483.53;;;1.25;100.00
55271;BME280;41132;47.162;9.470;2023-01-31T01:36:25;97482.13;;;1.18;100.00
55271;BME280;41132;47.162;9.470;2023-01-31T01:38:51;97466.78;;;1.15;100.00
55271;BME280;41132;47.162;9.470;2023-01-31T01:41:18;97483.66;;;1.22;100.00
55271;BME280;41132;47.162;9.470;2023-01-31T01:43:57;97466.44;;;1.03;100.00
55271;BME280;41132;47.162;9.470;2023-01-31T01:46:38;97475.16;;;1.20;100.00
55271;BME280;41132;47.162;9.470;2023-01-31T01:49:22;97484.06;;;1.14;100.00
55271;BME280;41132;47.162;9.470;2023-01-31T01:51:53;97478.63;;;1.01;100.00
55271;BME280;41132;47.162;9.470;2023-01-31T01:54:25;97477.19;;;1.13;100.00
55271;BME280;41132;47.162;9.470;2023-01-31T01:56:56;97477.72;;;1.02;100.00
55271;BME280;41132;47.162;9.470;2023-01-31T01:59:31;97486.63;;;1.14;100.00
55271;BME280;41132;47.162;9.470;2023-01-31T02:02:00;97484.13;;;1.13;100.00
55271;BME280;41132;47.162;9.470;2023-01-31T02:04:30;97475.47;;;1.14;100.00
55271;BME280;41132;47.162;9.470;2023-01-31T02:06:56;97479.38;;;1.03;100.00
55271;BME280;41132;47.162;9.470;2023-01-31T02:09:37;97480.66;;;0.95;100.00
55271;BME280;41132;47.162;9.470;2023-01-31T02:17:16;97480.69;;;1.12;100.00
55271;BME280;41132;47.162;9.470;2023-01-31T02:28:06;97469.88;;;1.04;100.00
55271;BME280;41132;47.162;9.470;2023-01-31T02:33:17;97473.94;;;1.10;100.00
55271;BME280;41132;47.162;9.470;2023-01-31T02:43:53;97464.34;;;1.12;100.00
55271;BME280;41132;47.162;9.470;2023-01-31T02:46:57;97462.53;;;1.14;100.00
55271;BME280;41132;47.162;9.470;2023-01-31T02:54:35;97446.25;;;0.75;100.00
55271;BME280;41132;47.162;9.470;2023-01-31T02:57:21;97463.97;;;0.83;100.00
55271;BME280;41132;47.162;9.470;2023-01-31T02:59:47;97477.25;;;0.75;100.00
55271;BME280;41132;47.162;9.470;2023-01-31T03:02:12;97474.13;;;0.69;100.00
55271;BME280;41132;47.162;9.470;2023-01-31T03:04:38;97476.97;;;0.62;100.00
55271;BME280;41132;47.162;9.470;2023-01-31T03:07:26;97482.56;;;0.53;100.00
55271;BME280;41132;47.162;9.470;2023-01-31T03:10:18;97495.84;;;0.46;100.00
55271;BME280;41132;47.162;9.470;2023-01-31T03:16:28;97489.47;;;0.34;100.00
55271;BME280;41132;47.162;9.470;2023-01-31T03:21:57;97504.38;;;0.27;100.00
55271;BME280;41132;47.162;9.470;2023-01-31T03:24:25;97497.19;;;0.15;100.00
55271;BME280;41132;47.162;9.470;2023-01-31T03:26:56;97495.72;;;0.09;100.00
55271;BME280;41132;47.162;9.470;2023-01-31T03:29:23;97503.38;;;0.11;100.00
55271;BME280;41132;47.162;9.470;2023-01-31T03:31:57;97503.47;;;0.09;100.00
55271;BME280;41132;47.162;9.470;2023-01-31T03:34:23;97506.16;;;0.06;100.00
55271;BME280;41132;47.162;9.470;2023-01-31T03:36:57;97505.72;;;-0.04;100.00
55271;BME280;41132;47.162;9.470;2023-01-31T03:42:54;97506.19;;;0.46;100.00
55271;BME280;41132;47.162;9.470;2023-01-31T03:45:46;97515.59;;;0.07;100.00
55271;BME280;41132;47.162;9.470;2023-01-31T03:48:14;97507.28;;;0.01;100.00
55271;BME280;41132;47.162;9.470;2023-01-31T03:51:03;97514.94;;;0.02;100.00
55271;BME280;41132;47.162;9.470;2023-01-31T03:53:38;97511.72;;;-0.03;100.00
55271;BME280;41132;47.162;9.470;2023-01-31T03:56:17;97517.13;;;-0.09;100.00
55271;BME280;41132;47.162;9.470;2023-01-31T03:58:49;97509.97;;;-0.23;100.00
55271;BME280;41132;47.162;9.470;2023-01-31T04:01:19;97510.56;;;-0.37;100.00
55271;BME280;41132;47.162;9.470;2023-01-31T04:04:00;97516.84;;;-0.22;100.00
55271;BME280;41132;47.162;9.470;2023-01-31T04:11:39;97515.88;;;-0.19;100.00
55271;BME280;41132;47.162;9.470;2023-01-31T04:14:05;97509.59;;;-0.34;100.00
55271;BME280;41132;47.162;9.470;2023-01-31T04:16:30;97522.78;;;-0.20;100.00
55271;BME280;41132;47.162;9.470;2023-01-31T04:21:29;97526.13;;;-0.18;100.00
55271;BME280;41132;47.162;9.470;2023-01-31T04:23:54;97508.31;;;-0.45;100.00
55271;BME280;41132;47.162;9.470;2023-01-31T04:26:20;97526.13;;;-0.38;100.00
55271;BME280;41132;47.162;9.470;2023-01-31T04:28:45;97528.56;;;-0.35;100.00
55271;BME280;41132;47.162;9.470;2023-01-31T04:31:10;97530.56;;;-0.22;100.00
55271;BME280;41132;47.162;9.470;2023-01-31T04:33:36;97523.03;;;-0.06;100.00
55271;BME280;41132;47.162;9.470;2023-01-31T04:36:01;97539.22;;;-0.23;100.00
55271;BME280;41132;47.162;9.470;2023-01-31T04:38:27;97534.44;;;-0.32;100.00
55271;BME280;41132;47.162;9.470;2023-01-31T04:40:52;97545.84;;;-0.37;100.00
55271;BME280;41132;47.162;9.470;2023-01-31T04:43:17;97541.03;;;-0.25;100.00
55271;BME280;41132;47.162;9.470;2023-01-31T04:45:44;97545.28;;;-0.03;100.00
55271;BME280;41132;47.162;9.470;2023-01-31T04:48:09;97552.13;;;-0.23;100.00
55271;BME280;41132;47.162;9.470;2023-01-31T04:50:34;97535.88;;;-0.25;100.00
55271;BME280;41132;47.162;9.470;2023-01-31T04:53:00;97530.91;;;-0.29;100.00
55271;BME280;41132;47.162;9.470;2023-01-31T04:55:25;97533.19;;;-0.23;100.00
55271;BME280;41132;47.162;9.470;2023-01-31T04:57:52;97540.13;;;-0.03;100.00
55271;BME280;41132;47.162;9.470;2023-01-31T05:00:18;97539.16;;;-0.01;100.00
55271;BME280;41132;47.162;9.470;2023-01-31T05:02:43;97546.50;;;-0.12;100.00
55271;BME280;41132;47.162;9.470;2023-01-31T05:05:09;97547.56;;;-0.16;100.00
55271;BME280;41132;47.162;9.470;2023-01-31T05:07:37;97533.59;;;-0.32;100.00
55271;BME280;41132;47.162;9.470;2023-01-31T05:10:03;97547.59;;;-0.38;100.00
55271;BME280;41132;47.162;9.470;2023-01-31T05:12:28;97554.81;;;-0.26;100.00
55271;BME280;41132;47.162;9.470;2023-01-31T05:14:54;97549.94;;;-0.32;100.00
55271;BME280;41132;47.162;9.470;2023-01-31T05:17:19;97554.59;;;-0.42;100.00
55271;BME280;41132;47.162;9.470;2023-01-31T05:19:51;97563.34;;;-0.46;100.00
55271;BME280;41132;47.162;9.470;2023-01-31T05:22:16;97565.06;;;-0.45;100.00
55271;BME280;41132;47.162;9.470;2023-01-31T05:24:41;97557.44;;;-0.48;100.00
55271;BME280;41132;47.162;9.470;2023-01-31T05:27:08;97565.47;;;-0.55;100.00
55271;BME280;41132;47.162;9.470;2023-01-31T05:29:34;97578.22;;;-0.52;100.00
55271;BME280;41132;47.162;9.470;2023-01-31T05:32:00;97583.69;;;-0.38;100.00
55271;BME280;41132;47.162;9.470;2023-01-31T05:39:37;97599.47;;;-0.46;100.00
55271;BME280;41132;47.162;9.470;2023-01-31T05:42:02;97590.59;;;-0.38;100.00
55271;BME280;41132;47.162;9.470;2023-01-31T05:44:28;97588.69;;;-0.55;100.00
55271;BME280;41132;47.162;9.470;2023-01-31T05:46:53;97592.59;;;-0.45;100.00
55271;BME280;41132;47.162;9.470;2023-01-31T05:49:19;97593.19;;;-0.38;100.00
55271;BME280;41132;47.162;9.470;2023-01-31T05:51:44;97592.88;;;-0.31;100.00
55271;BME280;41132;47.162;9.470;2023-01-31T05:59:21;97609.53;;;-0.17;100.00
55271;BME280;41132;47.162;9.470;2023-01-31T06:04:22;97608.94;;;-0.46;100.00
55271;BME280;41132;47.162;9.470;2023-01-31T06:06:47;97621.19;;;-0.29;100.00
55271;BME280;41132;47.162;9.470;2023-01-31T06:09:12;97610.19;;;-0.34;100.00
55271;BME280;41132;47.162;9.470;2023-01-31T06:11:38;97619.31;;;-0.26;100.00
55271;BME280;41132;47.162;9.470;2023-01-31T06:14:03;97624.00;;;-0.35;100.00
55271;BME280;41132;47.162;9.470;2023-01-31T06:16:30;97612.78;;;-0.34;100.00
55271;BME280;41132;47.162;9.470;2023-01-31T06:18:56;97603.19;;;-0.31;100.00
55271;BME280;41132;47.162;9.470;2023-01-31T06:21:22;97617.97;;;-0.14;100.00
55271;BME280;41132;47.162;9.470;2023-01-31T06:23:47;97619.97;;;-0.21;100.00
55271;BME280;41132;47.162;9.470;2023-01-31T06:57:15;97634.03;;;0.15;100.00
55271;BME280;41132;47.162;9.470;2023-01-31T07:02:15;97626.41;;;0.12;100.00
55271;BME280;41132;47.162;9.470;2023-01-31T07:04:41;97641.03;;;0.11;100.00
55271;BME280;41132;47.162;9.470;2023-01-31T07:07:06;97642.50;;;0.18;100.00
55271;BME280;41132;47.162;9.470;2023-01-31T07:09:31;97639.56;;;0.26;100.00
55271;BME280;41132;47.162;9.470;2023-01-31T07:14:32;97639.97;;;0.17;100.00
55271;BME280;41132;47.162;9.470;2023-01-31T07:16:57;97645.84;;;0.20;100.00
55271;BME280;41132;47.162;9.470;2023-01-31T07:21:58;97641.63;;;0.18;100.00
55271;BME280;41132;47.162;9.470;2023-01-31T07:26:58;97653.41;;;0.25;100.00
55271;BME280;41132;47.162;9.470;2023-01-31T07:29:25;97654.25;;;0.26;100.00
55271;BME280;41132;47.162;9.470;2023-01-31T07:31:50;97649.72;;;0.31;100.00
55271;BME280;41132;47.162;9.470;2023-01-31T07:34:16;97651.03;;;0.41;100.00
55271;BME280;41132;47.162;9.470;2023-01-31T07:36:43;97639.53;;;0.28;100.00
55271;BME280;41132;47.162;9.470;2023-01-31T07:39:08;97646.94;;;0.35;100.00
55271;BME280;41132;47.162;9.470;2023-01-31T07:41:33;97647.13;;;0.31;100.00
55271;BME280;41132;47.162;9.470;2023-01-31T07:43:59;97650.53;;;0.31;100.00
55271;BME280;41132;47.162;9.470;2023-01-31T07:46:24;97660.81;;;0.33;100.00
55271;BME280;41132;47.162;9.470;2023-01-31T07:51:25;97673.50;;;0.39;100.00
55271;BME280;41132;47.162;9.470;2023-01-31T07:53:50;97654.16;;;0.27;100.00
55271;BME280;41132;47.162;9.470;2023-01-31T07:56:18;97666.38;;;0.44;100.00
55271;BME280;41132;47.162;9.470;2023-01-31T08:01:22;97649.97;;;0.45;100.00
55271;BME280;41132;47.162;9.470;2023-01-31T08:04:08;97659.28;;;0.49;100.00
55271;BME280;41132;47.162;9.470;2023-01-31T08:06:33;97658.56;;;0.46;100.00
55271;BME280;41132;47.162;9.470;2023-01-31T08:08:59;97646.34;;;0.49;100.00
55271;BME280;41132;47.162;9.470;2023-01-31T08:37:16;97658.78;;;2.12;100.00
55271;BME280;41132;47.162;9.470;2023-01-31T08:39:42;97653.16;;;2.21;100.00
55271;BME280;41132;47.162;9.470;2023-01-31T08:42:08;97653.13;;;2.03;100.00
55271;BME280;41132;47.162;9.470;2023-01-31T08:44:33;97652.06;;;2.42;100.00
55271;BME280;41132;47.162;9.470;2023-01-31T08:47:02;97650.72;;;2.53;100.00
55271;BME280;41132;47.162;9.470;2023-01-31T08:49:27;97645.34;;;2.56;100.00
55271;BME280;41132;47.162;9.470;2023-01-31T08:51:52;97640.22;;;2.71;100.00
55271;BME280;41132;47.162;9.470;2023-01-31T08:54:18;97654.94;;;2.88;100.00
55271;BME280;41132;47.162;9.470;2023-01-31T08:56:43;97642.75;;;2.73;100.00
55271;BME280;41132;47.162;9.470;2023-01-31T08:59:09;97649.13;;;2.83;100.00
55271;BME280;41132;47.162;9.470;2023-01-31T09:01:35;97647.91;;;3.06;100.00
55271;BME280;41132;47.162;9.470;2023-01-31T09:04:01;97640.63;;;2.97;100.00
55271;BME280;41132;47.162;9.470;2023-01-31T09:06:26;97640.78;;;2.94;100.00
55271;BME280;41132;47.162;9.470;2023-01-31T09:08:54;97639.59;;;2.84;100.00
55271;BME280;41132;47.162;9.470;2023-01-31T09:11:19;97642.41;;;3.12;100.00
55271;BME280;41132;47.162;9.470;2023-01-31T09:13:47;97633.31;;;3.37;100.00
55271;BME280;41132;47.162;9.470;2023-01-31T09:16:16;97642.88;;;3.52;100.00
55271;BME280;41132;47.162;9.470;2023-01-31T09:18:42;97647.94;;;3.70;100.00
55271;BME280;41132;47.162;9.470;2023-01-31T09:21:18;97636.59;;;3.72;100.00
55271;BME280;41132;47.162;9.470;2023-01-31T09:23:45;97637.66;;;3.84;100.00
55271;BME280;41132;47.162;9.470;2023-01-31T09:26:11;97637.13;;;3.93;100.00
55271;BME280;41132;47.162;9.470;2023-01-31T09:28:37;97638.72;;;3.96;100.00
55271;BME280;41132;47.162;9.470;2023-01-31T09:31:08;97639.38;;;4.00;100.00
55271;BME280;41132;47.162;9.470;2023-01-31T09:33:34;97632.53;;;4.13;100.00
55271;BME280;41132;47.162;9.470;2023-01-31T09:36:02;97629.38;;;4.38;100.00
55271;BME280;41132;47.162;9.470;2023-01-31T09:38:28;97631.03;;;4.25;100.00
55271;BME280;41132;47.162;9.470;2023-01-31T09:40:54;97622.22;;;4.27;100.00
55271;BME280;41132;47.162;9.470;2023-01-31T09:43:24;97630.75;;;4.29;100.00
55271;BME280;41132;47.162;9.470;2023-01-31T09:45:52;97633.03;;;4.64;98.84
55271;BME280;41132;47.162;9.470;2023-01-31T09:48:23;97629.81;;;4.75;99.43
55271;BME280;41132;47.162;9.470;2023-01-31T09:50:51;97629.16;;;4.71;100.00
55271;BME280;41132;47.162;9.470;2023-01-31T09:53:22;97631.66;;;5.01;92.05
55271;BME280;41132;47.162;9.470;2023-01-31T09:56:03;97624.59;;;5.03;94.12
55271;BME280;41132;47.162;9.470;2023-01-31T09:58:35;97622.09;;;5.02;88.47
55271;BME280;41132;47.162;9.470;2023-01-31T10:07:00;97625.94;;;5.52;86.17
55271;BME280;41132;47.162;9.470;2023-01-31T10:09:33;97618.00;;;5.54;83.61
55271;BME280;41132;47.162;9.470;2023-01-31T10:12:08;97599.78;;;5.54;84.04
55271;BME280;41132;47.162;9.470;2023-01-31T10:14:44;97610.66;;;5.60;79.54
55271;BME280;41132;47.162;9.470;2023-01-31T10:19:53;97603.66;;;5.88;81.11
55271;BME280;41132;47.162;9.470;2023-01-31T10:22:46;97613.13;;;6.03;79.19
55271;BME280;41132;47.162;9.470;2023-01-31T10:27:50;97580.19;;;6.02;77.26
55271;BME280;41132;47.162;9.470;2023-01-31T10:30:27;97581.97;;;6.02;75.73
55271;BME280;41132;47.162;9.470;2023-01-31T10:33:01;97574.91;;;6.17;74.89
55271;BME280;41132;47.162;9.470;2023-01-31T10:35:33;97569.59;;;6.31;74.51
55271;BME280;41132;47.162;9.470;2023-01-31T10:38:25;97556.78;;;6.41;71.00
55271;BME280;41132;47.162;9.470;2023-01-31T10:41:08;97564.28;;;6.45;75.56
55271;BME280;41132;47.162;9.470;2023-01-31T10:43:38;97558.84;;;6.48;67.17
55271;BME280;41132;47.162;9.470;2023-01-31T10:46:09;97548.09;;;6.40;65.46
55271;BME280;41132;47.162;9.470;2023-01-31T10:48:35;97553.44;;;6.52;66.22
55271;BME280;41132;47.162;9.470;2023-01-31T10:51:13;97534.66;;;6.59;66.62
55271;BME280;41132;47.162;9.470;2023-01-31T10:56:37;97536.03;;;6.52;68.83
55271;BME280;41132;47.162;9.470;2023-01-31T10:59:36;97538.72;;;6.51;67.89
55271;BME280;41132;47.162;9.470;2023-01-31T11:02:03;97532.47;;;6.40;67.26
55271;BME280;41132;47.162;9.470;2023-01-31T11:04:41;97525.78;;;6.23;64.12
55271;BME280;41132;47.162;9.470;2023-01-31T11:07:08;97511.53;;;6.29;64.01
55271;BME280;41132;47.162;9.470;2023-01-31T11:09:39;97517.75;;;6.14;64.93
55271;BME280;41132;47.162;9.470;2023-01-31T11:12:06;97501.13;;;5.89;67.79
55271;BME280;41132;47.162;9.470;2023-01-31T11:14:34;97504.41;;;6.05;71.61
55271;BME280;41132;47.162;9.470;2023-01-31T11:17:16;97504.94;;;5.98;62.32
55271;BME280;41132;47.162;9.470;2023-01-31T11:19:47;97499.25;;;5.91;67.42
55271;BME280;41132;47.162;9.470;2023-01-31T11:22:25;97487.44;;;5.85;64.30
55271;BME280;41132;47.162;9.470;2023-01-31T11:24:52;97484.63;;;5.76;63.96
55271;BME280;41132;47.162;9.470;2023-01-31T11:27:43;97484.63;;;5.76;64.70
55271;BME280;41132;47.162;9.470;2023-01-31T11:32:47;97482.25;;;5.73;63.36
55271;BME280;41132;47.162;9.470;2023-01-31T11:37:50;97478.25;;;5.67;61.09
55271;BME280;41132;47.162;9.470;2023-01-31T11:45:20;97463.47;;;5.68;63.28
55271;BME280;41132;47.162;9.470;2023-01-31T11:47:56;97453.66;;;5.58;62.17
55271;BME280;41132;47.162;9.470;2023-01-31T11:50:34;97458.69;;;5.61;61.77
55271;BME280;41132;47.162;9.470;2023-01-31T11:53:04;97452.63;;;5.61;60.67
55271;BME280;41132;47.162;9.470;2023-01-31T11:55:39;97462.31;;;5.72;61.15
55271;BME280;41132;47.162;9.470;2023-01-31T11:58:18;97450.47;;;5.80;61.96
55271;BME280;41132;47.162;9.470;2023-01-31T12:00:55;97452.66;;;5.86;61.02
55271;BME280;41132;47.162;9.470;2023-01-31T12:03:22;97429.94;;;5.89;60.83
55271;BME280;41132;47.162;9.470;2023-01-31T12:06:07;97438.59;;;5.89;60.29
55271;BME280;41132;47.162;9.470;2023-01-31T12:08:38;97429.00;;;5.90;60.93
55271;BME280;41132;47.162;9.470;2023-01-31T12:11:50;97423.59;;;5.93;60.02
55271;BME280;41132;47.162;9.470;2023-01-31T12:16:33;97428.81;;;5.93;62.01
55271;BME280;41132;47.162;9.470;2023-01-31T12:19:16;97421.59;;;5.83;63.34
55271;BME280;41132;47.162;9.470;2023-01-31T12:21:54;97420.25;;;5.91;61.59
55271;BME280;41132;47.162;9.470;2023-01-31T12:47:52;97375.44;;;5.73;60.93
55271;BME280;41132;47.162;9.470;2023-01-31T13:01:10;97377.00;;;5.62;67.11
55271;BME280;41132;47.162;9.470;2023-01-31T13:06:28;97383.34;;;5.46;71.08
55271;BME280;41132;47.162;9.470;2023-01-31T13:09:03;97369.56;;;5.31;72.88
55271;BME280;41132;47.162;9.470;2023-01-31T13:11:43;97373.66;;;5.48;72.68
55271;BME280;41132;47.162;9.470;2023-01-31T13:14:19;97379.78;;;5.47;75.52
55271;BME280;41132;47.162;9.470;2023-01-31T13:16:50;97377.06;;;5.35;75.27
55271;BME280;41132;47.162;9.470;2023-01-31T13:19:33;97386.59;;;5.09;75.16
55271;BME280;41132;47.162;9.470;2023-01-31T13:22:10;97380.13;;;5.02;74.76
55271;BME280;41132;47.162;9.470;2023-01-31T13:24:39;97384.00;;;5.09;75.15
55271;BME280;41132;47.162;9.470;2023-01-31T13:27:20;97387.13;;;5.14;74.91
55271;BME280;41132;47.162;9.470;2023-01-31T13:30:04;97383.28;;;5.20;75.42
55271;BME280;41132;47.162;9.470;2023-01-31T13:32:40;97385.41;;;5.40;74.68
55271;BME280;41132;47.162;9.470;2023-01-31T13:35:31;97374.88;;;5.42;74.23
55271;BME280;41132;47.162;9.470;2023-01-31T13:38:06;97360.31;;;5.39;73.67
55271;BME280;41132;47.162;9.470;2023-01-31T13:40:41;97369.03;;;5.26;75.32
55271;BME280;41132;47.162;9.470;2023-01-31T13:43:13;97362.56;;;5.18;76.31
55271;BME280;41132;47.162;9.470;2023-01-31T13:45:55;97368.38;;;5.09;76.03
55271;BME280;41132;47.162;9.470;2023-01-31T13:48:31;97391.16;;;5.06;77.10
55271;BME280;41132;47.162;9.470;2023-01-31T13:51:18;97399.75;;;5.20;77.63
55271;BME280;41132;47.162;9.470;2023-01-31T13:53:50;97405.38;;;5.27;78.58
55271;BME280;41132;47.162;9.470;2023-01-31T13:56:28;97396.84;;;5.25;78.47
55271;BME280;41132;47.162;9.470;2023-01-31T13:58:55;97395.28;;;5.22;78.17
55271;BME280;41132;47.162;9.470;2023-01-31T14:01:26;97388.00;;;5.28;76.61
55271;BME280;41132;47.162;9.470;2023-01-31T14:10:23;97403.63;;;5.40;77.53
55271;BME280;41132;47.162;9.470;2023-01-31T14:14:44;97383.66;;;5.41;76.77
55271;BME280;41132;47.162;9.470;2023-01-31T14:32:41;97402.06;;;5.38;77.15
55271;BME280;41132;47.162;9.470;2023-01-31T14:40:51;97398.31;;;5.42;77.45
55271;BME280;41132;47.162;9.470;2023-01-31T14:46:59;97409.88;;;5.38;75.72
55271;BME280;41132;47.162;9.470;2023-01-31T14:52:10;97409.25;;;5.34;75.87
55271;BME280;41132;47.162;9.470;2023-01-31T14:57:39;97408.38;;;5.21;76.69
55271;BME280;41132;47.162;9.470;2023-01-31T15:00:17;97415.81;;;5.27;75.10
55271;BME280;41132;47.162;9.470;2023-01-31T15:03:03;97413.19;;;5.27;75.52
55271;BME280;41132;47.162;9.470;2023-01-31T15:13:49;97409.06;;;5.10;74.05
55271;BME280;41132;47.162;9.470;2023-01-31T15:18:42;97403.56;;;5.15;73.48
55271;BME280;41132;47.162;9.470;2023-01-31T15:21:09;97411.28;;;5.16;72.41
55271;BME280;41132;47.162;9.470;2023-01-31T15:23:39;97402.44;;;5.19;73.60
55271;BME280;41132;47.162;9.470;2023-01-31T15:26:07;97404.97;;;5.33;79.02
55271;BME280;41132;47.162;9.470;2023-01-31T15:28:37;97397.31;;;5.17;82.69
55271;BME280;41132;47.162;9.470;2023-01-31T15:31:13;97402.75;;;5.14;82.34
55271;BME280;41132;47.162;9.470;2023-01-31T15:33:44;97409.28;;;5.07;87.04
55271;BME280;41132;47.162;9.470;2023-01-31T15:36:36;97416.50;;;5.16;86.96
55271;BME280;41132;47.162;9.470;2023-01-31T15:39:28;97403.69;;;5.26;86.80
55271;BME280;41132;47.162;9.470;2023-01-31T15:41:54;97400.91;;;5.29;84.27
55271;BME280;41132;47.162;9.470;2023-01-31T15:44:25;97397.91;;;4.95;88.42
55271;BME280;41132;47.162;9.470;2023-01-31T15:46:53;97388.03;;;4.73;89.42
55271;BME280;41132;47.162;9.470;2023-01-31T15:52:09;97376.94;;;4.84;85.79
55271;BME280;41132;47.162;9.470;2023-01-31T15:54:36;97365.16;;;4.78;81.05
55271;BME280;41132;47.162;9.470;2023-01-31T15:57:02;97365.97;;;4.79;81.91
55271;BME280;41132;47.162;9.470;2023-01-31T15:59:30;97379.94;;;4.78;84.37
55271;BME280;41132;47.162;9.470;2023-01-31T16:01:59;97381.19;;;4.85;82.74
55271;BME280;41132;47.162;9.470;2023-01-31T16:04:26;97353.19;;;4.76;79.40
55271;BME280;41132;47.162;9.470;2023-01-31T16:06:52;97352.28;;;4.77;79.76
55271;BME280;41132;47.162;9.470;2023-01-31T16:09:24;97367.56;;;4.81;79.75
55271;BME280;41132;47.162;9.470;2023-01-31T16:11:50;97369.81;;;4.73;83.97
55271;BME280;41132;47.162;9.470;2023-01-31T16:14:17;97375.81;;;4.61;86.06
55271;BME280;41132;47.162;9.470;2023-01-31T16:16:46;97382.75;;;4.60;85.32
55271;BME280;41132;47.162;9.470;2023-01-31T16:19:23;97392.53;;;4.57;88.70
55271;BME280;41132;47.162;9.470;2023-01-31T16:21:49;97400.22;;;4.58;89.25
55271;BME280;41132;47.162;9.470;2023-01-31T16:24:20;97398.84;;;4.53;89.55
55271;BME280;41132;47.162;9.470;2023-01-31T16:27:11;97412.97;;;4.49;90.81
55271;BME280;41132;47.162;9.470;2023-01-31T16:29:47;97410.38;;;4.49;87.98
55271;BME280;41132;47.162;9.470;2023-01-31T16:32:24;97411.94;;;4.51;87.21
55271;BME280;41132;47.162;9.470;2023-01-31T17:18:11;97407.34;;;3.85;89.45
55271;BME280;41132;47.162;9.470;2023-01-31T17:23:12;97431.28;;;3.90;87.54
55271;BME280;41132;47.162;9.470;2023-01-31T17:28:13;97431.63;;;3.84;88.64
55271;BME280;41132;47.162;9.470;2023-01-31T17:30:40;97422.47;;;3.92;86.63
55271;BME280;41132;47.162;9.470;2023-01-31T18:19:39;97500.53;;;3.75;89.41
55271;BME280;41132;47.162;9.470;2023-01-31T18:22:04;97479.44;;;3.65;90.08
55271;BME280;41132;47.162;9.470;2023-01-31T18:34:50;97496.88;;;3.93;91.80
55271;BME280;41132;47.162;9.470;2023-01-31T20:09:52;97511.09;;;3.42;96.33
55271;BME280;41132;47.162;9.470;2023-01-31T20:12:17;97510.59;;;3.35;95.38
55271;BME280;41132;47.162;9.470;2023-01-31T20:14:42;97516.94;;;3.45;97.80
55271;BME280;41132;47.162;9.470;2023-01-31T20:24:51;97503.16;;;3.13;100.00
55271;BME280;41132;47.162;9.470;2023-01-31T20:29:52;97509.59;;;3.22;100.00
55271;BME280;41132;47.162;9.470;2023-01-31T20:32:18;97512.19;;;3.22;99.99
55271;BME280;41132;47.162;9.470;2023-01-31T20:37:19;97510.94;;;2.97;100.00
55271;BME280;41132;47.162;9.470;2023-01-31T20:42:15;97501.44;;;3.13;100.00
55271;BME280;41132;47.162;9.470;2023-01-31T20:49:51;97489.94;;;3.18;100.00
55271;BME280;41132;47.162;9.470;2023-01-31T20:57:27;97469.88;;;2.89;100.00
55271;BME280;41132;47.162;9.470;2023-01-31T21:17:59;97456.34;;;3.30;100.00
55271;BME280;41132;47.162;9.470;2023-01-31T21:20:24;97449.81;;;3.09;100.00
55271;BME280;41132;47.162;9.470;2023-01-31T21:22:49;97451.78;;;3.04;100.00
55271;BME280;41132;47.162;9.470;2023-01-31T21:30:25;97458.56;;;3.06;100.00
55271;BME280;41132;47.162;9.470;2023-01-31T21:32:50;97444.44;;;3.12;100.00
55271;BME280;41132;47.162;9.470;2023-01-31T21:37:52;97444.13;;;2.70;100.00
55271;BME280;41132;47.162;9.470;2023-01-31T21:40:17;97445.56;;;2.60;100.00
55271;BME280;41132;47.162;9.470;2023-01-31T21:47:54;97471.13;;;2.98;100.00
55271;BME280;41132;47.162;9.470;2023-01-31T21:55:48;97462.09;;;3.05;100.00
55271;BME280;41132;47.162;9.470;2023-01-31T22:00:49;97441.69;;;2.99;100.00
55271;BME280;41132;47.162;9.470;2023-01-31T22:36:51;97444.22;;;2.53;100.00
55271;BME280;41132;47.162;9.470;2023-01-31T22:52:12;97451.25;;;2.67;100.00
55271;BME280;41132;47.162;9.470;2023-01-31T22:54:38;97447.63;;;2.54;100.00
55271;BME280;41132;47.162;9.470;2023-01-31T23:15:11;97427.72;;;2.38;100.00
55271;BME280;41132;47.162;9.470;2023-01-31T23:22:50;97421.22;;;2.47;100.00
55271;BME280;41132;47.162;9.470;2023-01-31T23:35:37;97418.94;;;2.09;100.00
55271;BME280;41132;47.162;9.470;2023-01-31T23:38:02;97410.69;;;2.34;100.00
55271;BME280;41132;47.162;9.470;2023-01-31T23:40:28;97397.19;;;1.96;100.00
55271;BME280;41132;47.162;9.470;2023-01-31T23:42:53;97408.13;;;2.01;100.00
55271;BME280;41132;47.162;9.470;2023-01-31T23:45:18;97409.38;;;1.94;100.00